Time,TemperatureF,DewpointF,PressureIn,WindDirection,WindDirectionDegrees,WindSpeedMPH,WindSpeedGustMPH,Humidity,HourlyPrecipIn,Conditions,Clouds,dailyrainin,SoftwareType,DateUTC
2017-02-24 00:03:00,31.9,31.1,29.70,NNE,30,10.0,20.0,97,0.01,,-RA,0.00,VWS V15.00,2017-02-24 06:03:00,
2017-02-24 00:08:00,31.8,31.0,29.68,NE,42,11.0,20.0,97,0.01,,-RA,0.00,VWS V15.00,2017-02-24 06:08:00,
2017-02-24 00:13:00,31.8,31.0,29.69,NE,44,3.0,15.0,97,0.01,,-RA,0.00,VWS V15.00,2017-02-24 06:13:00,
2017-02-24 00:18:00,31.8,31.0,29.69,NE,46,1.0,15.0,97,0.01,,-RA,0.00,VWS V15.00,2017-02-24 06:18:00,
2017-02-24 00:23:00,31.9,31.1,29.68,NE,39,11.0,11.0,97,0.01,,-RA,0.00,VWS V15.00,2017-02-24 06:23:00,
2017-02-24 00:28:00,31.9,31.1,29.66,NE,54,7.0,14.0,97,0.01,,-RA,0.00,VWS V15.00,2017-02-24 06:28:00,
2017-02-24 00:33:00,31.9,31.1,29.67,NE,53,0.0,0.0,97,0.01,,-RA,0.00,VWS V15.00,2017-02-24 06:33:00,
2017-02-24 00:38:00,31.9,31.1,29.64,ENE,61,0.0,0.0,97,0.01,,-RA,0.00,VWS V15.00,2017-02-24 06:38:00,
2017-02-24 00:43:00,31.9,31.1,29.68,NNE,19,0.0,0.0,97,0.01,,-RA,0.00,VWS V15.00,2017-02-24 06:43:00,
2017-02-24 00:48:00,31.9,31.1,29.74,NNE,13,0.0,0.0,97,0.01,,-RA,0.00,VWS V15.00,2017-02-24 06:48:00,
2017-02-24 00:53:00,32.0,31.2,29.73,NE,36,0.0,0.0,97,0.00,,-RA,0.00,VWS V15.00,2017-02-24 06:53:00,
2017-02-24 00:58:00,32.0,31.2,29.67,NE,50,0.0,0.0,97,0.00,,-RA,0.00,VWS V15.00,2017-02-24 06:58:00,
2017-02-24 01:03:00,31.9,31.1,29.68,ENE,60,0.0,0.0,97,0.00,,-RA,0.00,VWS V15.00,2017-02-24 07:03:00,
2017-02-24 01:08:00,31.8,31.0,29.66,NE,39,0.0,0.0,97,0.00,,-RA,0.00,VWS V15.00,2017-02-24 07:08:00,
2017-02-24 01:13:00,31.8,31.0,29.64,NNE,32,0.0,0.0,97,0.00,,-RA,0.00,VWS V15.00,2017-02-24 07:13:00,
2017-02-24 01:18:00,31.7,31.0,29.66,NE,53,0.0,0.0,97,0.00,,-RA,0.00,VWS V15.00,2017-02-24 07:18:00,
2017-02-24 01:23:00,31.8,31.0,29.67,NE,54,0.0,0.0,97,0.00,,-RA,0.00,VWS V15.00,2017-02-24 07:23:00,
2017-02-24 01:28:00,31.8,31.0,29.68,NE,40,0.0,0.0,97,0.00,,-RA,0.00,VWS V15.00,2017-02-24 07:28:00,
2017-02-24 01:33:00,31.8,30.8,29.68,NE,39,0.0,0.0,96,0.00,,-RA,0.00,VWS V15.00,2017-02-24 07:33:00,
2017-02-24 01:38:00,31.8,30.8,29.67,NE,34,0.0,0.0,96,0.00,,RA,0.00,VWS V15.00,2017-02-24 07:38:00,
2017-02-24 01:43:00,31.9,30.9,29.68,NNE,31,0.0,0.0,96,0.00,,RA,0.00,VWS V15.00,2017-02-24 07:43:00,
2017-02-24 01:48:00,31.9,30.9,29.68,NE,50,0.0,0.0,96,0.00,,RA,0.00,VWS V15.00,2017-02-24 07:48:00,
2017-02-24 01:53:00,31.9,30.9,29.68,NE,44,0.0,0.0,96,0.00,,-RA,0.00,VWS V15.00,2017-02-24 07:53:00,
2017-02-24 01:58:00,31.9,30.9,29.68,NE,39,0.0,0.0,96,0.01,,-RA,0.01,VWS V15.00,2017-02-24 07:58:00,
2017-02-24 02:03:00,31.9,30.9,29.68,NE,35,0.0,0.0,96,0.01,,-RA,0.01,VWS V15.00,2017-02-24 08:03:00,
2017-02-24 02:08:00,31.9,30.9,29.66,NE,40,0.0,0.0,96,0.01,,-RA,0.01,VWS V15.00,2017-02-24 08:08:00,
2017-02-24 02:13:00,31.8,30.8,29.66,NE,46,0.0,0.0,96,0.01,,-RA,0.01,VWS V15.00,2017-02-24 08:13:00,
2017-02-24 02:18:00,31.8,30.8,29.65,NE,36,0.0,0.0,96,0.01,,-RA,0.01,VWS V15.00,2017-02-24 08:18:00,
2017-02-24 02:23:00,31.8,30.8,29.66,NNE,17,0.0,0.0,96,0.01,,-RA,0.01,VWS V15.00,2017-02-24 08:23:00,
2017-02-24 02:28:00,31.8,30.8,29.66,NNE,19,0.0,0.0,96,0.01,,-RA,0.01,VWS V15.00,2017-02-24 08:28:00,
2017-02-24 02:33:00,31.8,30.8,29.66,NNE,19,0.0,0.0,96,0.01,,-RA,0.01,VWS V15.00,2017-02-24 08:33:00,
2017-02-24 02:38:00,31.8,30.8,29.66,NNE,19,0.0,0.0,96,0.01,,-RA,0.01,VWS V15.00,2017-02-24 08:38:00,
2017-02-24 02:43:00,31.8,30.8,29.66,NNE,20,0.0,0.0,96,0.01,,-RA,0.01,VWS V15.00,2017-02-24 08:43:00,
2017-02-24 02:48:00,31.8,30.8,29.66,NNE,21,0.0,0.0,96,0.01,,-RA,0.01,VWS V15.00,2017-02-24 08:48:00,
2017-02-24 02:53:00,31.8,30.8,29.65,NNE,30,0.0,0.0,96,0.01,,-RA,0.01,VWS V15.00,2017-02-24 08:53:00,
2017-02-24 02:58:00,31.7,30.7,29.64,NE,38,0.0,0.0,96,0.01,,-RA,0.01,VWS V15.00,2017-02-24 08:58:00,
2017-02-24 03:03:00,31.7,30.7,29.63,NE,38,0.0,0.0,96,0.00,,-RA,0.01,VWS V15.00,2017-02-24 09:03:00,
2017-02-24 03:08:00,31.7,30.7,29.62,NE,38,0.0,0.0,96,0.00,,-RA,0.01,VWS V15.00,2017-02-24 09:08:00,
2017-02-24 03:13:00,31.6,30.6,29.62,NE,38,0.0,0.0,96,0.00,,-RA,0.01,VWS V15.00,2017-02-24 09:13:00,
2017-02-24 03:18:00,31.6,30.6,29.61,NE,38,0.0,0.0,96,0.00,,-RA,0.01,VWS V15.00,2017-02-24 09:18:00,
2017-02-24 03:23:00,31.6,30.6,29.61,NE,38,0.0,0.0,96,0.00,,-RA,0.01,VWS V15.00,2017-02-24 09:23:00,
2017-02-24 03:28:00,31.5,30.5,29.61,NE,38,0.0,0.0,96,0.00,,-RA,0.01,VWS V15.00,2017-02-24 09:28:00,
2017-02-24 03:33:00,31.5,30.5,29.60,NE,38,0.0,0.0,96,0.00,,-RA,0.01,VWS V15.00,2017-02-24 09:33:00,
2017-02-24 03:38:00,31.4,30.4,29.59,NE,38,0.0,0.0,96,0.00,,,0.01,VWS V15.00,2017-02-24 09:38:00,
2017-02-24 03:43:00,31.4,30.4,29.59,NE,38,0.0,0.0,96,0.00,,,0.01,VWS V15.00,2017-02-24 09:43:00,
2017-02-24 03:48:00,31.4,30.4,29.59,NE,38,0.0,0.0,96,0.00,,,0.01,VWS V15.00,2017-02-24 09:48:00,
2017-02-24 03:53:00,31.5,30.5,29.59,NE,38,0.0,0.0,96,0.00,,,0.01,VWS V15.00,2017-02-24 09:53:00,
2017-02-24 03:58:00,31.6,30.6,29.59,NE,38,0.0,0.0,96,0.00,,,0.01,VWS V15.00,2017-02-24 09:58:00,
2017-02-24 04:03:00,31.7,30.7,29.59,NE,38,0.0,0.0,96,0.00,,,0.01,VWS V15.00,2017-02-24 10:03:00,
2017-02-24 04:08:00,31.6,30.6,29.58,NE,38,0.0,0.0,96,0.00,,,0.01,VWS V15.00,2017-02-24 10:08:00,
2017-02-24 04:13:00,31.5,30.5,29.58,NE,38,0.0,0.0,96,0.00,,,0.01,VWS V15.00,2017-02-24 10:13:00,
2017-02-24 04:18:00,31.5,30.5,29.58,NE,38,0.0,0.0,96,0.00,,,0.01,VWS V15.00,2017-02-24 10:18:00,
2017-02-24 04:23:00,31.5,30.5,29.58,NE,38,0.0,0.0,96,0.00,,,0.01,VWS V15.00,2017-02-24 10:23:00,
2017-02-24 04:28:00,31.5,30.5,29.59,NE,38,0.0,0.0,96,0.00,,,0.01,VWS V15.00,2017-02-24 10:28:00,
2017-02-24 04:33:00,31.5,30.5,29.59,NE,38,0.0,0.0,96,0.00,,,0.01,VWS V15.00,2017-02-24 10:33:00,
2017-02-24 04:38:00,31.5,30.5,29.59,NE,38,0.0,0.0,96,0.00,,,0.01,VWS V15.00,2017-02-24 10:38:00,
2017-02-24 04:43:00,31.6,30.6,29.61,NE,38,0.0,0.0,96,0.00,,,0.01,VWS V15.00,2017-02-24 10:43:00,
2017-02-24 04:48:00,31.7,30.7,29.63,NE,38,0.0,0.0,96,0.00,,,0.01,VWS V15.00,2017-02-24 10:48:00,
2017-02-24 04:53:00,31.6,30.6,29.62,NE,38,0.0,0.0,96,0.00,,,0.01,VWS V15.00,2017-02-24 10:53:00,
2017-02-24 04:58:00,31.6,30.6,29.60,NE,38,0.0,0.0,96,0.00,,,0.01,VWS V15.00,2017-02-24 10:58:00,
2017-02-24 05:03:00,31.6,30.6,29.61,NE,38,0.0,0.0,96,0.00,,,0.01,VWS V15.00,2017-02-24 11:03:00,
2017-02-24 05:08:00,31.6,30.6,29.61,NE,38,0.0,0.0,96,0.00,,,0.01,VWS V15.00,2017-02-24 11:08:00,
2017-02-24 05:13:00,31.6,30.6,29.62,NE,38,0.0,0.0,96,0.00,,,0.01,VWS V15.00,2017-02-24 11:13:00,
2017-02-24 05:18:00,31.6,30.6,29.62,NE,38,0.0,0.0,96,0.00,,,0.01,VWS V15.00,2017-02-24 11:18:00,
2017-02-24 05:23:00,31.6,30.6,29.62,NE,38,0.0,0.0,96,0.00,,,0.01,VWS V15.00,2017-02-24 11:23:00,
2017-02-24 05:28:00,31.5,30.8,29.61,NE,38,0.0,0.0,97,0.00,,,0.01,VWS V15.00,2017-02-24 11:28:00,
2017-02-24 05:33:00,31.5,30.8,29.61,NE,38,0.0,0.0,97,0.00,,,0.01,VWS V15.00,2017-02-24 11:33:00,
2017-02-24 05:38:00,31.4,30.6,29.59,NE,38,0.0,0.0,97,0.00,,,0.01,VWS V15.00,2017-02-24 11:38:00,
2017-02-24 05:43:00,31.2,30.2,29.59,NE,38,0.0,0.0,96,0.00,,,0.01,VWS V15.00,2017-02-24 11:43:00,
2017-02-24 05:48:00,31.2,30.2,29.60,NE,38,0.0,0.0,96,0.00,,,0.01,VWS V15.00,2017-02-24 11:48:00,
2017-02-24 05:53:00,31.1,30.4,29.59,NE,38,0.0,0.0,97,0.00,,,0.01,VWS V15.00,2017-02-24 11:53:00,
2017-02-24 05:58:00,31.0,30.2,29.59,NE,38,0.0,0.0,97,0.00,,,0.01,VWS V15.00,2017-02-24 11:58:00,
2017-02-24 06:03:00,30.9,30.1,29.59,NE,38,0.0,0.0,97,0.00,,,0.01,VWS V15.00,2017-02-24 12:03:00,
2017-02-24 06:08:00,30.8,29.8,29.58,NE,38,0.0,0.0,96,0.00,,,0.01,VWS V15.00,2017-02-24 12:08:00,
2017-02-24 06:13:00,30.7,30.0,29.59,NE,38,0.0,0.0,97,0.00,,,0.01,VWS V15.00,2017-02-24 12:13:00,
2017-02-24 06:18:00,30.7,30.0,29.59,NE,38,0.0,0.0,97,0.00,,,0.01,VWS V15.00,2017-02-24 12:18:00,
2017-02-24 06:23:00,30.6,29.6,29.59,NE,38,0.0,0.0,96,0.00,,,0.01,VWS V15.00,2017-02-24 12:23:00,
2017-02-24 06:28:00,30.6,29.6,29.59,NE,38,0.0,0.0,96,0.00,,,0.01,VWS V15.00,2017-02-24 12:28:00,
2017-02-24 06:33:00,30.6,29.6,29.59,NE,38,0.0,0.0,96,0.00,,,0.01,VWS V15.00,2017-02-24 12:33:00,
2017-02-24 06:38:00,30.6,29.6,29.60,NE,38,0.0,0.0,96,0.00,,-RA,0.01,VWS V15.00,2017-02-24 12:38:00,
2017-02-24 06:43:00,30.6,29.6,29.59,NE,38,0.0,0.0,96,0.00,,-RA,0.01,VWS V15.00,2017-02-24 12:43:00,
2017-02-24 06:48:00,30.6,29.6,29.59,NE,38,0.0,0.0,96,0.00,,-RA,0.01,VWS V15.00,2017-02-24 12:48:00,
2017-02-24 06:53:00,30.6,29.6,29.58,NE,38,0.0,0.0,96,0.00,,OVC017CB,0.01,VWS V15.00,2017-02-24 12:53:00,
2017-02-24 06:58:00,30.7,29.7,29.59,NE,38,0.0,0.0,96,0.00,,OVC017CB,0.01,VWS V15.00,2017-02-24 12:58:00,
2017-02-24 07:03:00,30.6,29.6,29.59,NE,38,0.0,0.0,96,0.00,,OVC017CB,0.01,VWS V15.00,2017-02-24 13:03:00,
2017-02-24 07:08:00,30.7,30.0,29.59,NE,38,0.0,0.0,97,0.00,,OVC017CB,0.01,VWS V15.00,2017-02-24 13:08:00,
2017-02-24 07:13:00,30.6,29.9,29.59,NE,38,0.0,0.0,97,0.00,,OVC017CB,0.01,VWS V15.00,2017-02-24 13:13:00,
2017-02-24 07:18:00,30.6,29.9,29.59,NE,38,0.0,0.0,97,0.00,,OVC017CB,0.01,VWS V15.00,2017-02-24 13:18:00,
2017-02-24 07:23:00,30.6,29.9,29.59,NE,38,0.0,0.0,97,0.00,,OVC017CB,0.01,VWS V15.00,2017-02-24 13:23:00,
2017-02-24 07:28:00,30.6,29.9,29.59,NE,38,0.0,0.0,97,0.00,,OVC017CB,0.01,VWS V15.00,2017-02-24 13:28:00,
2017-02-24 07:33:00,30.6,29.9,29.60,NE,38,0.0,0.0,97,0.00,,OVC017CB,0.01,VWS V15.00,2017-02-24 13:33:00,
2017-02-24 07:38:00,30.6,29.9,29.59,NE,38,0.0,0.0,97,0.00,,OVC009,0.01,VWS V15.00,2017-02-24 13:38:00,
2017-02-24 07:43:00,30.6,29.9,29.59,NE,38,0.0,0.0,97,0.00,,OVC009,0.01,VWS V15.00,2017-02-24 13:43:00,
2017-02-24 07:48:00,30.6,29.9,29.58,NE,38,0.0,0.0,97,0.00,,OVC009,0.01,VWS V15.00,2017-02-24 13:48:00,
2017-02-24 07:53:00,30.6,29.9,29.58,NE,38,0.0,0.0,97,0.00,,,0.01,VWS V15.00,2017-02-24 13:53:00,
2017-02-24 07:58:00,30.6,29.9,29.58,NE,38,0.0,0.0,97,0.00,,,0.01,VWS V15.00,2017-02-24 13:58:00,
2017-02-24 08:03:00,30.7,30.0,29.58,NE,38,0.0,0.0,97,0.00,,,0.01,VWS V15.00,2017-02-24 14:03:00,
2017-02-24 08:08:00,30.7,30.0,29.58,NE,38,0.0,0.0,97,0.00,,,0.01,VWS V15.00,2017-02-24 14:08:00,
2017-02-24 08:13:00,30.6,29.9,29.58,NE,38,0.0,0.0,97,0.00,,,0.01,VWS V15.00,2017-02-24 14:13:00,
2017-02-24 08:18:00,30.6,29.9,29.57,NE,38,0.0,0.0,97,0.00,,,0.01,VWS V15.00,2017-02-24 14:18:00,
2017-02-24 08:23:00,30.5,29.8,29.57,NE,38,0.0,0.0,97,0.00,,,0.01,VWS V15.00,2017-02-24 14:23:00,